Date,TemperatureHighF,TemperatureAvgF,TemperatureLowF,DewpointHighF,DewpointAvgF,DewpointLowF,HumidityHigh,HumidityAvg,HumidityLow,PressureMaxIn,PressureMinIn,WindSpeedMaxMPH,WindSpeedAvgMPH,GustSpeedMaxMPH,PrecipitationSumIn
2013-1-1,54.3,47.1,38.5,51.7,41.8,31.4,92,82,70,29.93,29.66,17,6,18,0.06
2013-1-2,42.6,37.4,32.9,31.4,28.8,25.3,77,71,61,30.01,29.91,12,4,14,0.00
2013-1-3,42.6,37.4,28.8,31.8,28.4,21.8,79,70,63,30.11,29.98,17,4,17,0.00
2013-1-4,42.1,39.7,35.4,37.3,34.0,29.8,86,80,65,30.18,30.04,10,2,10,0.28
2013-1-5,52.3,43.9,36.5,42.6,38.0,30.3,87,80,67,30.04,29.89,8,1,8,0.03
2013-1-6,55.4,42.5,34.2,35.9,30.9,25.7,82,65,43,30.08,29.96,20,4,20,0.00
2013-1-7,35.2,32.0,30.0,28.3,24.1,22.7,78,72,68,29.99,29.94,2,0,2,0.00
2013-1-8,50.2,48.2,45.3,47.9,44.6,38.7,92,88,70,29.74,29.57,14,5,14,0.71
2013-1-9,56.8,54.5,50.2,54.0,51.9,47.9,93,91,89,29.70,29.52,22,6,25,1.71
2013-1-10,59.2,52.1,46.9,50.0,46.1,40.8,90,80,67,29.72,29.65,20,4,20,0.00
2013-1-11,70.9,58.5,46.6,61.0,52.2,41.4,89,80,67,29.68,29.50,24,8,24,0.00
2013-1-12,72.7,63.6,45.0,67.7,58.1,34.0,93,83,59,29.61,29.36,21,8,21,0.02
2013-1-13,47.8,41.6,35.2,34.3,29.0,23.5,68,61,49,29.86,29.61,22,10,22,0.00
2013-1-14,46.8,37.9,31.3,29.9,26.0,21.7,69,62,49,29.92,29.75,21,10,22,0.00
2013-1-15,39.0,35.5,33.6,32.1,29.5,24.5,87,79,67,29.91,29.77,21,8,21,0.00
2013-1-16,48.2,38.0,30.4,27.5,23.1,20.3,69,56,35,30.00,29.84,21,3,21,0.00
2013-1-17,60.6,46.4,35.2,37.9,31.3,23.2,70,56,39,30.16,29.95,20,3,20,0.00
2013-1-18,60.3,45.4,32.2,39.1,31.8,24.2,75,60,42,30.18,29.98,16,2,16,0.00
2013-1-19,64.9,52.4,43.7,48.3,41.9,34.0,84,68,53,29.98,29.83,20,6,23,0.00
2013-1-20,67.8,54.8,42.4,48.6,42.5,35.4,79,64,45,29.92,29.76,15,2,16,0.00
2013-1-21,64.9,54.7,44.4,48.4,43.1,36.9,81,66,51,29.93,29.80,12,2,15,0.00
2013-1-22,66.9,52.6,40.5,52.2,42.4,32.8,77,69,57,29.99,29.87,17,2,17,0.00
2013-1-23,70.7,59.3,47.1,57.6,51.0,40.9,86,75,62,30.01,29.87,21,5,22,0.00
2013-1-24,77.2,65.7,58.5,63.0,57.5,52.7,89,76,57,29.91,29.78,18,7,21,0.00
2013-1-25,77.9,65.3,54.3,63.0,56.7,45.5,88,75,57,29.85,29.71,21,8,22,0.00
2013-1-26,59.5,54.4,50.5,54.7,49.1,45.1,87,82,72,29.87,29.76,14,2,14,0.00
2013-1-27,74.8,65.3,54.7,63.3,59.8,50.5,91,83,67,29.78,29.64,22,10,23,0.00
2013-1-28,75.9,70.3,66.6,66.4,63.9,62.4,88,81,67,29.72,29.56,25,10,25,0.00
2013-1-29,78.4,68.5,55.9,66.4,56.2,27.0,87,68,33,29.57,29.22,24,11,25,0.00
2013-1-30,55.9,50.0,39.0,29.4,24.1,19.3,50,37,27,29.88,29.48,22,7,24,0.00
2013-1-31,64.4,49.9,36.7,30.2,25.1,20.6,53,39,26,29.95,29.83,21,4,21,0.00
2013-2-1,66.7,53.6,40.3,42.5,33.3,24.7,59,47,36,30.02,29.84,17,4,19,0.00
2013-2-2,70.0,58.1,45.5,53.4,44.5,36.1,76,61,47,29.99,29.85,17,3,17,0.00
2013-2-3,67.8,56.2,41.0,44.8,37.1,30.6,68,51,31,30.02,29.70,14,3,16,0.00
2013-2-4,73.6,63.0,57.0,59.7,53.0,44.4,85,71,56,29.70,29.49,22,7,22,0.04
2013-2-5,74.1,61.5,50.7,52.4,47.2,43.1,78,61,39,29.68,29.55,9,2,12,0.00
2013-2-6,72.7,63.7,57.0,59.3,53.9,46.5,81,71,62,29.69,29.53,12,3,16,0.00
2013-2-7,78.6,66.4,59.0,60.7,52.8,41.1,85,65,33,29.78,29.55,19,6,19,0.00
2013-2-8,65.1,55.3,47.3,44.5,34.5,27.6,66,48,25,29.92,29.77,22,7,22,0.00
2013-2-9,65.5,56.5,48.6,63.1,50.8,32.1,92,82,53,29.78,29.47,20,6,20,0.00
2013-2-10,66.2,60.6,55.6,63.4,48.1,37.2,92,66,36,29.71,29.40,22,4,22,0.82
2013-2-11,58.3,54.0,49.8,47.5,44.4,40.4,82,70,54,29.78,29.66,18,6,20,0.02
2013-2-12,67.1,55.7,49.1,53.3,45.2,32.5,89,71,34,29.74,29.50,23,5,23,0.02
2013-2-13,58.8,48.3,40.5,38.7,34.6,30.9,73,60,40,29.83,29.71,13,3,45,0.00
2013-2-14,67.3,52.2,38.5,43.8,37.0,30.9,77,59,35,29.79,29.67,16,3,17,0.00
2013-2-15,57.0,48.5,40.3,40.2,34.1,26.7,70,58,48,30.06,29.74,22,6,23,0.00
2013-2-16,61.0,46.5,32.5,34.3,29.2,22.8,68,52,36,30.11,29.88,11,2,12,0.00
2013-2-17,66.9,55.0,40.8,48.7,36.7,27.5,69,51,36,29.88,29.63,24,9,24,0.00
2013-2-18,76.8,65.1,55.2,58.9,46.7,31.6,79,56,24,29.79,29.53,22,10,28,0.00
2013-2-19,63.3,54.6,41.5,33.9,31.2,27.4,60,42,27,29.96,29.77,20,6,20,0.00
2013-2-20,59.4,53.7,51.1,56.9,42.9,33.3,92,69,41,29.80,29.35,21,7,21,0.10
2013-2-21,71.4,62.9,49.3,62.9,44.8,29.8,93,57,23,29.56,29.27,22,7,24,0.00
2013-2-22,55.4,47.0,39.4,36.6,32.4,27.9,74,58,45,29.75,29.52,21,7,21,0.00
2013-2-23,64.9,50.6,37.9,39.9,33.2,27.6,67,52,36,29.74,29.58,18,3,18,0.00
2013-2-24,70.7,56.1,39.7,55.3,43.3,29.9,78,63,49,29.61,29.28,22,6,22,0.00
2013-2-25,61.9,54.8,45.0,56.1,37.9,28.9,85,55,32,29.52,29.25,30,11,30,0.02
2013-2-26,63.0,50.7,39.7,34.5,31.3,27.5,62,49,33,29.63,29.51,15,4,20,0.00
2013-2-27,60.6,51.2,43.3,34.3,28.4,21.2,57,42,29,29.91,29.53,21,7,24,0.00
2013-2-28,58.5,47.8,39.7,30.1,26.3,22.0,61,44,29,30.00,29.87,21,5,21,0.00
2013-3-1,65.1,49.8,33.6,33.1,26.4,21.6,63,43,24,29.97,29.81,22,3,22,0.00
2013-3-2,59.7,48.2,39.0,31.2,28.2,25.7,62,47,33,30.10,29.93,22,5,22,0.00
2013-3-3,72.3,56.4,39.4,40.8,33.1,25.0,59,43,28,29.93,29.57,23,9,28,0.00
2013-3-4,82.8,67.5,54.5,52.3,45.5,39.6,71,48,28,29.57,29.39,25,11,31,0.00
2013-3-5,67.8,55.1,40.3,49.9,26.9,15.3,56,36,18,30.04,29.44,26,11,28,0.00
2013-3-6,63.1,47.9,32.9,25.5,21.2,15.2,49,36,21,30.12,29.88,13,3,13,0.00
2013-3-7,69.1,56.1,41.2,50.9,40.3,23.7,72,56,44,29.93,29.77,17,6,18,0.00
2013-3-8,62.4,60.0,57.7,59.5,54.7,49.9,90,83,68,29.84,29.69,18,5,18,0.08
2013-3-9,69.1,64.6,60.6,64.3,60.5,56.5,91,87,82,29.68,29.33,24,10,24,0.33
2013-3-10,64.2,58.2,48.0,60.0,42.5,33.7,86,57,41,29.80,29.44,22,7,23,0.58
2013-3-11,64.0,50.2,37.9,34.3,30.4,25.9,69,49,29,29.85,29.69,15,3,20,0.00
2013-3-12,75.7,58.2,43.2,43.1,36.5,29.6,65,46,29,29.95,29.73,22,5,22,0.00
2013-3-13,72.7,58.7,43.5,42.7,37.8,31.7,64,47,33,30.12,29.95,17,3,17,0.00
2013-3-14,75.9,63.1,51.6,53.0,44.9,37.3,72,53,37,30.06,29.90,22,7,23,0.00
2013-3-15,79.0,66.9,55.8,55.2,49.3,42.6,78,56,36,29.92,29.68,22,8,25,0.00
2013-3-16,81.7,69.4,58.3,59.2,54.2,46.8,79,60,40,29.69,29.43,23,11,26,0.00
2013-3-17,81.9,71.9,65.7,62.7,59.2,55.5,75,65,49,29.51,29.36,22,6,23,0.00
2013-3-18,81.3,71.9,62.8,64.3,54.5,45.3,84,58,32,29.66,29.41,20,8,23,0.00
2013-3-19,80.6,64.8,49.3,61.1,50.3,39.1,70,60,49,29.74,29.54,22,5,22,0.00
2013-3-20,68.2,59.6,51.1,51.3,44.6,37.1,84,60,32,29.94,29.71,54,9,86,0.02
2013-3-21,75.4,63.5,53.2,58.6,51.5,41.5,76,65,55,29.72,29.30,23,8,25,0.00
2013-3-22,77.5,68.7,54.3,65.0,58.1,44.8,84,70,54,29.49,29.32,21,8,23,0.00
2013-3-23,76.8,59.6,49.3,62.2,50.9,43.8,87,74,48,29.50,29.30,14,5,15,0.00
2013-3-24,61.0,51.3,43.2,53.7,32.6,25.1,83,51,32,29.84,29.39,24,10,25,0.00
2013-3-25,57.7,46.4,35.8,27.1,23.5,20.9,58,42,27,30.06,29.84,19,5,19,0.00
2013-3-26,63.7,49.0,32.4,31.2,25.8,21.0,63,43,25,30.14,29.96,9,2,9,0.00
2013-3-27,70.3,56.5,38.3,46.3,37.1,24.8,62,49,39,29.98,29.82,20,6,22,0.00
2013-3-28,73.9,63.3,55.2,59.4,52.9,44.3,79,69,59,29.88,29.79,20,6,21,0.00
2013-3-29,77.7,68.1,59.2,59.9,56.4,53.7,83,67,53,29.86,29.74,21,6,21,0.00
2013-3-30,80.8,71.3,64.8,63.5,59.6,55.6,80,67,52,29.79,29.59,19,6,22,0.00
2013-3-31,73.9,69.1,64.9,66.0,62.0,57.7,85,78,68,29.69,29.57,16,3,18,0.06
2013-4-1,81.5,69.4,57.7,65.5,59.5,51.3,89,72,52,29.76,29.60,13,3,15,0.00
2013-4-2,74.8,66.9,56.8,65.9,61.1,49.8,89,81,72,29.72,29.49,22,4,24,0.73
2013-4-3,55.9,51.3,48.7,51.5,47.5,44.7,89,87,80,29.82,29.55,20,7,22,0.29
2013-4-4,57.4,50.1,46.0,45.3,42.5,39.1,86,76,63,29.90,29.78,17,6,17,0.00
2013-4-5,71.2,55.8,39.6,50.4,43.6,33.6,80,65,45,29.94,29.73,9,2,10,0.00
2013-4-6,78.8,65.6,52.7,60.0,53.0,44.5,81,65,51,29.74,29.54,21,8,26,0.00
2013-4-7,79.9,68.7,63.1,65.5,59.6,55.0,81,73,59,29.61,29.44,20,8,21,0.00
2013-4-8,72.1,68.8,66.0,65.8,62.6,59.1,85,80,73,29.52,29.38,22,8,22,0.00
2013-4-9,80.8,72.6,68.5,68.8,65.5,62.8,85,79,65,29.41,29.30,23,9,23,0.00
2013-4-10,73.0,56.1,46.2,66.9,48.8,39.3,85,76,68,29.65,29.35,21,9,21,0.24
2013-4-11,67.1,54.2,44.8,45.0,40.5,35.9,75,61,43,29.66,29.49,17,5,20,0.02
2013-4-12,78.8,63.1,46.0,52.2,45.6,38.6,76,56,33,29.69,29.54,12,3,13,0.00
2013-4-13,75.7,65.4,56.8,59.5,52.7,45.3,78,65,44,29.65,29.48,14,2,16,0.02
2013-4-14,86.9,72.1,59.5,67.0,60.0,53.1,83,67,46,29.51,29.29,22,6,24,0.00
2013-4-15,89.4,77.8,69.4,69.5,65.8,63.5,83,68,50,29.50,29.37,22,8,106,0.00
2013-4-16,87.6,77.7,69.6,69.5,65.7,62.0,78,67,54,29.59,29.49,24,8,24,0.00
2013-4-17,84.0,76.9,72.7,69.6,68.4,66.9,85,75,61,29.58,29.38,24,8,24,0.00
2013-4-18,74.3,62.1,52.2,69.5,51.0,36.8,85,68,49,29.79,29.34,22,10,24,0.25
2013-4-19,66.4,55.5,45.0,37.2,33.3,28.2,66,46,26,29.98,29.79,21,5,21,0.00
2013-4-20,56.8,45.5,41.2,38.8,33.8,31.4,70,64,48,29.90,29.84,17,1,17,0.00
2013-4-21,77.5,64.8,51.1,56.9,50.1,42.4,74,60,47,29.84,29.70,17,4,20,0.00
2013-4-22,84.6,71.9,58.5,63.1,57.3,51.1,78,62,46,29.78,29.56,21,6,21,0.00
2013-4-23,76.1,64.0,49.3,65.2,53.9,39.9,81,70,55,29.82,29.52,21,7,21,0.00
2013-4-24,63.0,52.6,43.9,39.9,36.8,31.5,73,56,41,29.96,29.83,22,10,22,0.00
2013-4-25,67.6,60.2,54.3,47.6,43.9,39.3,64,55,46,30.01,29.85,14,4,14,0.00
2013-4-26,75.0,66.8,60.6,67.6,59.0,45.2,87,76,51,29.85,29.70,16,5,16,0.00
2013-4-27,85.3,75.9,68.5,70.0,66.0,60.9,87,72,55,29.78,29.64,14,3,14,0.12
2013-4-28,86.7,75.9,65.5,67.4,62.6,58.5,83,65,42,29.73,29.54,12,3,14,0.00
2013-4-29,84.0,74.1,68.2,67.7,63.5,59.6,82,70,54,29.63,29.48,14,4,62,0.12
2013-4-30,84.9,74.3,65.3,67.8,63.3,59.0,84,70,53,29.54,29.43,15,3,17,0.00
2013-5-1,88.0,77.2,68.2,69.3,65.4,60.6,82,68,52,29.66,29.47,14,4,14,0.00
2013-5-2,75.6,56.7,46.9,63.9,46.1,35.1,74,68,62,30.02,29.60,24,10,25,0.00
2013-5-3,67.6,55.2,43.2,35.5,32.9,29.8,65,46,26,30.02,29.76,22,7,25,0.00
2013-5-4,81.3,62.5,45.7,44.7,38.2,32.1,60,44,22,29.75,29.58,20,3,20,0.00
2013-5-5,74.1,62.1,48.0,48.3,42.5,35.4,64,50,35,29.85,29.69,17,4,17,0.00
2013-5-6,76.5,64.0,50.5,53.5,47.4,40.9,71,56,41,29.84,29.69,10,1,10,0.00
2013-5-7,85.8,70.2,51.1,56.0,50.6,42.4,74,52,34,29.78,29.60,16,3,16,0.00
2013-5-8,83.8,72.5,64.4,65.9,60.4,52.4,80,66,49,29.71,29.58,21,6,21,0.00
2013-5-9,77.4,70.8,68.2,68.5,63.4,59.5,85,78,68,29.70,29.50,22,5,22,0.08
2013-5-10,84.0,69.5,62.8,67.3,60.7,56.1,87,75,53,29.74,29.52,22,5,35,1.96
2013-5-11,78.3,69.6,62.4,61.6,56.8,51.2,84,66,42,29.85,29.70,18,6,24,0.00
2013-5-12,79.3,67.5,56.1,57.7,51.6,46.3,77,59,35,29.96,29.82,13,4,18,0.00
2013-5-13,86.0,72.0,52.7,57.5,52.1,44.3,75,52,30,29.96,29.83,13,2,13,0.00
2013-5-14,87.1,75.8,64.4,65.1,59.8,53.7,71,59,42,29.90,29.69,21,7,23,0.00
2013-5-15,85.8,75.6,68.2,72.5,67.0,61.4,86,75,61,29.78,29.51,22,8,24,0.29
2013-5-16,89.2,77.3,68.4,73.9,68.9,62.5,87,76,58,29.59,29.43,21,7,24,0.24
2013-5-17,93.2,83.4,74.3,75.5,71.7,68.5,82,69,53,29.60,29.49,18,6,18,0.00
2013-5-18,94.6,83.2,73.0,73.1,68.5,63.7,81,62,47,29.62,29.49,22,9,24,0.00
2013-5-19,93.4,82.7,72.7,73.5,68.8,63.9,79,64,52,29.55,29.43,24,9,24,0.00
2013-5-20,93.6,82.8,73.6,73.7,69.7,66.9,80,66,50,29.54,29.40,22,8,22,0.00
2013-5-21,89.4,79.0,74.8,74.4,69.9,68.1,81,74,59,29.53,29.44,23,9,23,0.00
2013-5-22,87.6,71.2,59.7,60.7,57.1,51.4,75,63,39,29.64,29.55,11,2,14,0.00
2013-5-23,88.0,83.2,75.9,73.0,71.0,68.6,79,67,60,29.75,29.60,17,4,18,0.00
2013-5-24,81.9,77.4,75.0,72.7,70.0,68.5,81,78,71,29.82,29.70,13,4,13,0.27
2013-5-25,82.6,74.3,68.7,71.8,68.4,64.5,92,82,68,29.83,29.72,22,4,22,1.35
2013-5-26,88.0,78.8,72.3,74.8,70.6,66.6,88,77,63,29.79,29.67,24,6,24,0.43
2013-5-27,89.4,79.2,72.3,73.9,69.4,66.0,84,73,59,29.70,29.54,21,7,21,0.00
2013-5-28,89.4,80.7,73.0,73.0,69.2,66.5,80,69,55,29.60,29.48,23,9,24,0.00
2013-5-29,85.1,77.8,73.9,75.9,70.0,67.5,84,77,67,29.59,29.42,26,8,26,0.10
2013-5-30,90.1,80.7,74.1,75.0,71.1,68.5,83,73,60,29.55,29.46,24,8,24,0.00
2013-5-31,92.7,83.6,76.3,76.7,72.5,69.7,81,70,58,29.59,29.45,24,8,24,0.00
2013-6-1,95.0,84.9,76.3,77.0,72.7,69.4,81,68,53,29.63,29.48,22,6,22,0.00
2013-6-2,86.2,77.9,68.9,72.7,65.1,61.5,84,66,47,29.78,29.62,16,4,16,0.16
2013-6-3,93.4,79.3,64.0,68.9,63.1,56.7,78,60,39,29.70,29.55,10,1,10,0.00
2013-6-4,94.8,83.6,72.7,70.0,66.8,62.3,80,59,41,29.63,29.51,20,5,20,0.00
2013-6-5,93.7,82.6,73.0,71.7,66.9,63.1,78,61,42,29.62,29.47,22,4,22,0.00
2013-6-6,93.9,82.5,74.3,68.5,66.0,61.8,78,59,39,29.66,29.51,20,5,20,0.00
2013-6-7,86.9,77.3,68.9,64.1,60.4,55.5,78,58,38,29.73,29.59,17,3,17,0.00
2013-6-8,92.1,78.6,62.1,69.2,61.8,52.7,73,58,44,29.66,29.51,17,3,17,0.00
2013-6-9,88.3,80.1,70.9,71.9,68.9,63.2,82,69,53,29.69,29.55,21,3,21,0.33
2013-6-10,95.9,86.8,72.3,74.4,69.1,63.2,81,58,35,29.72,29.62,11,3,11,0.00
2013-6-11,96.1,85.7,76.3,73.6,70.6,65.6,80,62,45,29.76,29.66,18,4,18,0.00
2013-6-12,97.0,85.5,75.9,75.6,71.5,68.0,81,64,47,29.77,29.66,18,5,18,0.00
2013-6-13,98.1,84.6,76.5,75.6,70.6,66.1,81,64,45,29.78,29.65,19,4,19,0.00
2013-6-14,91.9,82.5,75.4,75.6,71.6,67.6,81,70,54,29.72,29.62,12,2,12,0.00
2013-6-15,89.8,82.6,77.9,75.3,72.6,69.9,83,72,57,29.72,29.62,11,2,11,0.00
2013-6-16,98.8,87.4,75.7,74.3,71.0,67.2,82,60,41,29.74,29.61,14,4,14,0.00
2013-6-17,99.3,89.3,77.9,75.0,70.6,65.9,76,56,41,29.73,29.57,15,5,15,0.00
2013-6-18,93.0,83.5,72.7,74.9,70.7,66.2,81,66,50,29.74,29.60,14,2,15,0.28
2013-6-19,98.2,87.0,75.0,74.6,70.9,67.2,80,61,43,29.70,29.62,17,3,17,0.00
2013-6-20,98.1,85.7,76.6,73.3,68.3,65.5,76,58,39,29.78,29.66,21,6,21,0.00
2013-6-21,98.6,88.2,77.5,73.5,68.8,62.7,77,55,36,29.79,29.68,21,7,21,0.00
2013-6-22,98.4,88.2,77.4,72.1,68.3,64.0,76,54,37,29.77,29.61,19,7,22,0.00
2013-6-23,97.5,87.6,77.5,73.1,67.8,60.7,76,54,36,29.71,29.60,22,7,22,0.00
2013-6-24,99.1,87.7,77.5,73.4,69.2,65.0,75,56,38,29.74,29.61,21,8,23,0.00
2013-6-25,100.6,89.0,79.0,71.8,68.8,64.0,75,54,33,29.72,29.58,22,9,22,0.00
2013-6-26,100.9,88.5,78.6,74.7,69.6,65.5,71,56,36,29.70,29.59,17,7,21,0.00
2013-6-27,102.9,90.3,78.3,72.6,66.8,59.0,73,49,25,29.76,29.61,18,5,18,0.00
2013-6-28,105.1,91.7,78.6,71.7,67.5,60.6,69,48,28,29.72,29.54,16,3,16,0.00
2013-6-29,104.4,90.6,77.4,72.4,65.1,59.8,63,45,27,29.62,29.49,12,3,14,0.00
2013-6-30,97.3,87.6,76.1,70.0,65.3,58.7,68,49,37,29.67,29.55,17,3,17,0.02
2013-7-1,89.2,81.6,73.0,61.7,55.6,50.4,53,42,29,29.74,29.64,21,5,21,0.00
2013-7-2,92.3,79.6,65.8,60.1,52.4,44.1,63,41,24,29.80,29.68,16,3,16,0.00
2013-7-3,94.3,80.4,63.3,59.4,50.9,46.5,58,38,24,29.76,29.62,13,2,13,0.00
2013-7-4,94.3,82.7,73.2,65.5,58.9,49.4,69,46,29,29.72,29.60,11,3,12,0.00
2013-7-5,100.0,87.1,72.3,67.7,61.5,57.3,69,45,26,29.71,29.56,15,3,18,0.00
2013-7-6,100.2,88.3,73.9,70.8,64.8,60.7,66,48,31,29.67,29.54,17,3,17,0.00
2013-7-7,100.2,88.4,75.4,72.8,68.6,64.6,72,54,35,29.71,29.60,20,3,20,0.00
2013-7-8,87.4,82.8,79.2,76.0,71.4,69.5,78,69,58,29.82,29.70,11,3,11,0.41
2013-7-9,99.7,87.5,75.7,74.6,70.7,67.9,82,60,39,29.87,29.72,17,6,17,0.54
2013-7-10,102.7,90.2,77.5,74.1,70.0,66.8,76,54,34,29.82,29.65,61,5,61,0.00
2013-7-11,102.0,90.9,79.5,74.3,68.3,61.9,72,50,30,29.74,29.59,14,5,17,0.00
2013-7-12,101.8,91.8,79.7,71.9,66.3,63.5,65,45,31,29.69,29.59,13,4,13,0.00
2013-7-13,104.2,92.7,80.4,68.1,65.4,62.0,60,42,28,29.72,29.57,9,2,12,0.00
2013-7-14,93.9,82.0,71.1,68.1,64.2,61.3,83,56,40,29.67,29.58,22,5,23,0.00
2013-7-15,73.9,70.7,68.5,70.9,66.7,64.3,90,87,83,29.74,29.62,13,4,13,2.12
2013-7-16,87.4,78.0,70.7,74.2,69.9,67.0,89,77,61,29.85,29.74,9,3,11,0.06
2013-7-17,85.1,77.8,73.0,73.5,70.6,68.4,86,79,68,29.89,29.82,9,2,9,0.96
2013-7-18,91.4,81.4,73.0,73.3,70.1,68.1,88,71,50,29.89,29.71,7,1,7,0.00
2013-7-19,94.6,87.8,75.4,73.3,68.9,67.1,78,55,42,29.79,29.63,8,2,8,0.00
2013-7-20,96.1,85.4,76.1,74.0,70.6,68.2,79,63,44,29.72,29.58,12,3,12,0.00
2013-7-21,97.0,86.8,76.3,78.2,72.5,68.7,80,64,46,29.68,29.60,18,4,18,0.00
2013-7-22,96.1,90.2,78.4,75.3,71.9,69.5,79,56,48,29.71,29.61,12,6,12,0.00
2013-7-23,98.4,90.8,79.3,73.9,69.6,65.5,76,52,39,29.73,29.59,17,6,17,0.00
2013-7-24,97.3,83.7,78.1,76.0,71.9,69.8,77,69,47,29.71,29.61,12,5,13,0.00
2013-7-25,98.4,91.9,83.7,73.9,69.4,67.5,61,49,40,29.75,29.68,6,1,6,0.00
2013-7-26,99.1,85.5,79.0,76.0,70.3,67.5,73,61,43,29.74,29.60,10,6,10,0.00
2013-7-27,86.4,79.5,75.9,73.0,70.6,66.6,80,75,59,29.72,29.64,9,4,10,0.29
2013-7-28,95.2,92.2,75.9,75.6,73.2,66.6,73,54,50,29.66,29.57,6,3,8,0.00
2013-7-29,97.9,91.0,84.6,69.5,67.1,65.8,54,46,40,29.74,29.67,10,8,10,0.00
2013-7-30,96.4,95.0,93.9,74.1,72.0,69.5,52,48,42,29.78,29.69,6,5,6,0.00
2013-8-1,100.2,100.2,100.2,72.3,72.3,72.3,41,41,41,29.70,29.70,5,5,5,0.00
2013-8-2,100.2,91.7,86.4,68.5,67.1,65.9,52,45,35,29.70,29.61,11,3,11,0.00
2013-8-3,100.2,85.6,79.3,73.8,69.5,66.8,73,60,37,29.75,29.67,11,6,11,0.00
2013-8-4,95.2,88.7,80.6,74.3,72.6,70.4,71,60,50,29.80,29.74,9,7,9,0.00
2013-8-5,99.7,95.2,90.1,67.7,67.2,66.7,48,41,35,29.64,29.60,10,4,10,0.00
2013-8-6,101.1,93.7,82.0,69.0,67.4,65.8,64,45,33,29.65,29.54,8,5,9,0.00
2013-8-7,79.9,79.9,79.9,68.8,68.8,68.8,69,69,69,29.62,29.62,9,9,9,0.00
2013-8-9,87.1,86.2,84.7,61.2,61.1,61.0,45,43,42,29.67,29.65,0,0,0,0.00
2013-8-10,100.6,93.7,81.7,72.7,68.9,66.2,71,47,35,29.77,29.66,19,5,19,0.06
2013-8-11,96.1,85.9,78.6,72.7,70.7,68.6,78,63,42,29.76,29.68,9,2,9,0.02
2013-8-12,97.0,97.0,97.0,69.4,69.4,69.4,41,41,41,29.75,29.75,1,1,1,0.00
2013-8-15,83.1,79.0,77.4,71.7,71.2,70.1,80,77,68,29.72,29.67,8,2,8,0.29
2013-8-16,89.4,78.6,73.0,73.5,69.7,67.6,85,75,50,29.78,29.66,12,2,12,0.02
2013-8-17,91.0,87.5,77.0,67.3,63.9,61.6,61,46,39,29.73,29.66,13,7,13,0.00
2013-8-18,93.0,89.4,81.1,61.8,60.4,58.7,52,39,32,29.72,29.71,4,3,4,0.00
2013-8-19,95.5,90.9,70.3,65.0,63.4,59.2,68,42,37,29.71,29.65,4,2,5,0.00
2013-8-31,91.6,90.8,90.1,69.9,69.4,69.0,50,50,49,30.00,29.66,7,4,7,0.00
2013-9-5,95.7,85.8,75.0,72.1,68.0,66.2,74,57,40,30.15,30.05,6,2,6,0.00
2013-9-6,82.6,79.3,76.1,71.6,69.5,67.4,74,72,69,30.13,30.11,2,1,2,0.00
2013-9-7,85.1,81.7,78.8,66.3,65.8,65.2,65,58,52,30.03,30.01,8,3,8,0.00
2013-9-8,91.9,74.6,30.4,78.2,63.6,24.1,81,69,46,30.05,29.93,10,2,10,0.00
2013-9-9,93.0,78.4,72.1,70.8,67.2,64.6,80,69,43,30.05,29.96,11,2,11,0.00
2013-9-10,89.6,75.0,30.9,70.3,64.8,26.9,85,71,51,30.11,30.03,11,2,11,0.00
2013-9-11,91.0,78.8,73.8,70.1,66.9,65.8,80,68,45,30.15,30.07,4,1,4,0.00
2013-9-13,92.3,83.0,79.9,61.3,60.6,60.1,51,47,36,29.93,29.88,9,2,9,0.00
2013-9-14,94.8,84.4,73.6,71.9,63.8,61.1,71,52,36,30.00,29.89,17,2,17,0.00
2013-9-15,91.2,81.4,73.9,72.5,68.5,65.3,80,66,46,30.08,29.97,29,3,29,0.17
2013-9-16,88.7,76.8,71.6,71.0,67.1,64.0,81,72,53,30.12,30.01,12,1,12,0.20
2013-9-17,76.3,75.8,74.3,70.4,70.0,68.8,83,82,82,30.09,30.05,0,0,0,0.29
2013-9-19,85.6,78.8,75.2,72.5,70.1,68.2,81,75,65,29.99,29.87,0,0,0,0.02
2013-9-20,72.1,71.9,71.8,68.7,68.5,68.0,89,89,88,29.86,29.85,10,10,10,0.00
2013-9-21,68.5,67.7,66.6,64.8,63.6,62.2,88,87,86,29.94,29.91,12,8,12,0.61
2013-10-26,75.9,75.9,75.7,64.0,63.8,63.7,67,66,66,30.12,30.11,13,10,13,0.00
2013-11-14,61.5,52.0,33.3,48.5,35.5,21.0,81,56,25,30.30,30.06,24,8,24,0.00
2013-11-15,80.8,62.7,47.8,59.0,54.5,19.2,99,77,10,30.07,29.89,36,8,36,0.00
2013-11-16,78.1,70.0,61.2,70.0,64.8,48.4,97,84,39,29.94,29.79,73,16,73,0.00
2013-11-17,88.7,72.6,54.0,70.4,61.6,49.8,95,73,29,30.00,29.81,25,8,25,0.00
2013-11-18,71.4,63.1,53.8,56.5,49.4,43.6,91,62,49,30.16,30.00,17,6,17,0.00
2013-11-19,61.2,57.9,54.5,48.7,47.5,45.9,76,69,58,30.15,30.11,6,1,6,0.00
2013-11-20,69.6,63.4,56.7,64.1,59.6,45.3,99,88,64,30.03,29.91,17,8,18,0.00
2013-11-21,76.5,70.4,64.4,71.9,68.1,64.1,99,93,77,30.08,29.95,24,7,24,0.73
2013-11-22,67.6,67.6,67.6,67.4,67.4,67.4,99,99,99,30.40,30.08,8,8,8,0.00
2013-11-23,82.2,45.2,32.7,67.4,40.9,20.3,99,92,10,30.48,30.37,30,14,30,0.25
2013-11-24,39.4,35.0,31.3,36.2,30.5,25.5,99,84,65,30.49,30.31,30,13,30,0.18
2013-11-25,37.4,34.8,31.5,36.4,33.5,31.2,99,95,85,30.34,30.09,25,8,25,0.33
2013-11-26,50.9,40.5,35.1,36.0,31.2,25.6,95,71,42,30.37,30.13,34,15,34,0.00
2013-11-27,48.0,36.8,29.1,28.1,22.3,10.4,91,60,24,30.48,30.34,25,8,25,0.00
2013-11-28,55.8,37.7,27.0,32.0,26.4,14.9,96,68,22,30.44,30.33,14,2,14,0.00
2013-11-29,63.3,47.0,26.8,47.8,40.6,24.9,99,80,51,30.49,30.34,17,4,17,0.00
2013-11-30,62.8,55.3,50.4,55.6,49.7,43.3,98,82,71,30.37,30.19,17,7,17,0.00
2013-12-1,70.0,61.9,54.7,58.7,56.3,53.9,98,82,66,30.20,29.95,23,10,23,0.00
2013-12-2,81.3,63.8,48.2,56.0,47.8,34.6,92,62,19,29.96,29.69,25,6,25,0.00
2013-12-3,82.0,65.0,46.0,47.8,42.0,31.5,86,48,18,29.73,29.62,18,5,18,0.00
2013-12-4,75.9,65.9,59.5,65.0,57.1,43.7,98,75,49,29.81,29.68,20,6,20,0.00
2013-12-5,64.2,39.5,27.5,63.4,33.1,20.5,99,78,58,30.11,29.80,30,16,30,0.00
2013-12-6,30.9,28.4,24.3,30.3,25.0,17.1,99,87,71,30.44,30.06,30,16,32,0.00
2013-12-7,26.2,23.6,21.2,21.8,17.9,14.7,92,79,72,30.46,30.26,29,12,29,0.00
2013-12-8,51.4,32.6,23.7,40.9,30.1,21.6,99,91,67,30.26,30.02,11,2,11,0.00
2013-12-9,36.0,32.8,30.0,35.0,32.2,26.4,99,97,86,30.39,30.05,30,10,30,0.05
2013-12-10,43.9,31.2,23.7,27.5,19.7,13.9,90,65,32,30.50,30.33,21,8,22,0.00
2013-12-11,55.4,39.3,23.7,34.9,25.2,18.0,86,61,26,30.56,30.31,17,4,17,0.00
2013-12-12,52.3,38.8,28.6,34.7,29.9,24.7,86,71,47,30.62,30.33,10,3,12,0.00
2013-12-13,48.0,44.0,40.3,47.8,40.9,33.2,99,89,70,30.33,29.93,16,5,17,0.32
2013-12-14,48.4,43.2,38.5,46.1,36.9,27.3,99,80,55,30.38,29.90,27,11,33,0.01
2013-12-15,61.5,43.8,30.0,36.2,28.2,22.8,87,58,25,30.42,30.30,12,3,12,0.00
2013-12-16,68.2,50.1,34.5,38.2,31.9,26.8,75,52,26,30.33,30.22,19,6,19,0.00
2013-12-17,75.7,52.6,37.4,41.9,33.3,18.6,96,54,14,30.35,30.26,13,3,14,0.00
2013-12-18,68.2,55.3,41.4,53.5,46.7,36.3,87,74,52,30.32,30.09,27,9,28,0.00
2013-12-19,72.3,62.8,54.0,63.0,57.9,50.6,94,85,63,30.09,29.85,43,18,43,0.07
2013-12-20,71.6,67.0,63.7,67.5,64.0,61.9,96,90,77,29.91,29.69,33,12,33,0.00
2013-12-21,70.3,50.9,40.1,66.3,43.9,34.9,99,80,40,29.86,29.63,27,7,27,0.41
2013-12-22,49.5,42.6,33.1,40.4,34.5,26.4,99,74,51,30.40,29.86,26,10,26,0.00
2013-12-23,56.3,36.7,27.0,33.3,25.8,17.7,97,70,25,30.55,30.39,13,3,13,0.00
2013-12-24,57.7,42.6,24.6,38.7,27.7,21.8,99,62,27,30.54,30.28,23,8,24,0.00
2013-12-25,60.3,46.8,34.2,48.4,41.5,33.5,99,83,62,30.43,30.26,24,5,24,0.00
2013-12-26,57.7,42.3,33.8,41.4,36.0,31.5,99,80,50,30.46,30.33,15,3,15,0.00
2013-12-27,56.7,45.6,37.0,42.3,38.6,29.9,99,80,39,30.46,30.34,13,2,13,0.00
2013-12-28,62.6,47.6,34.5,46.2,40.6,33.8,99,79,51,30.34,30.03,18,5,18,0.00
2013-12-29,56.5,45.3,29.7,47.9,41.8,28.4,99,88,72,30.32,29.98,30,11,30,0.00
2013-12-30,43.9,34.7,28.9,29.3,24.5,19.3,95,67,43,30.41,30.25,21,6,21,0.00
2013-12-31,59.0,40.3,29.5,30.6,27.8,20.9,89,64,30,30.48,30.25,13,2,13,0.00
2014-1-1,66.7,51.3,37.2,53.8,41.8,27.5,95,71,57,30.25,30.00,34,12,34,0.00
2014-1-2,50.9,36.9,24.6,37.5,23.2,17.5,80,60,32,30.47,30.16,35,13,35,0.00